Time;durP1;ratioP1;P1;durP2;ratioP2;P2;SDS_P1;SDS_P2;PMS_P1;PMS_P2;Temp;Humidity;BMP_temperature;BMP_pressure;BME280_temperature;BME280_humidity;BME280_pressure;Samples;Min_cycle;Max_cycle;Signal;HPM_P1;HPM_P2
2022/11/12 00:00:49;;;;;;;108.25;57.33;;;;;;;;;;4988910;28;20056;-77
2022/11/12 00:03:15;;;;;;;120.50;60.13;;;;;;;;;;4983401;28;20582;-77
2022/11/12 00:05:41;;;;;;;117.68;58.47;;;;;;;;;;4988621;28;20057;-77
2022/11/12 00:08:07;;;;;;;116.43;57.90;;;;;;;;;;4990209;28;20031;-77
2022/11/12 00:10:35;;;;;;;117.28;57.45;;;;;;;;;;4990840;28;20049;-78
2022/11/12 00:13:02;;;;;;;121.72;57.63;;;;;;;;;;4993121;28;20125;-78
2022/11/12 00:15:29;;;;;;;116.65;58.38;;;;;;;;;;4985776;28;20393;-76
2022/11/12 00:17:55;;;;;;;116.03;56.65;;;;;;;;;;4995504;28;20524;-76
2022/11/12 00:20:21;;;;;;;105.80;55.05;;;;;;;;;;5006013;28;20165;-76
2022/11/12 00:22:47;;;;;;;114.35;56.20;;;;;;;;;;4995527;28;20030;-76
2022/11/12 00:25:14;;;;;;;101.93;52.83;;;;;;;;;;4990638;28;20054;-76
2022/11/12 00:27:40;;;;;;;102.45;53.92;;;;;;;;;;4998038;28;20034;-76
2022/11/12 00:30:06;;;;;;;113.00;54.75;;;;;;;;;;4999299;28;20022;-77
2022/11/12 00:32:35;;;;;;;114.28;56.05;;;;;;;;;;4992199;28;20481;-76
2022/11/12 00:35:00;;;;;;;120.55;60.50;;;;;;;;;;5001632;28;20037;-77
2022/11/12 00:37:45;;;;;;;125.90;62.80;;;;;;;;;;4981429;28;21325;-77
2022/11/12 00:40:13;;;;;;;125.28;61.15;;;;;;;;;;5002019;28;20050;-77
2022/11/12 00:42:39;;;;;;;133.85;64.35;;;;;;;;;;4987012;28;20018;-79
2022/11/12 00:45:05;;;;;;;139.15;67.63;;;;;;;;;;5001471;28;20017;-78
2022/11/12 00:47:31;;;;;;;139.77;68.38;;;;;;;;;;5006298;28;20499;-78
2022/11/12 00:49:57;;;;;;;140.55;67.82;;;;;;;;;;4985964;28;20102;-79
2022/11/12 00:52:23;;;;;;;129.68;64.80;;;;;;;;;;4988468;28;21373;-76
2022/11/12 00:55:08;;;;;;;139.38;68.88;;;;;;;;;;4998691;28;20030;-77
2022/11/12 00:57:53;;;;;;;142.27;68.25;;;;;;;;;;4990685;28;20080;-77
2022/11/12 01:00:19;;;;;;;140.65;69.10;;;;;;;;;;4985783;28;20038;-77
2022/11/12 01:02:46;;;;;;;138.52;66.65;;;;;;;;;;4982881;28;20848;-78
2022/11/12 01:05:12;;;;;;;133.88;68.97;;;;;;;;;;4987194;28;20045;-78
2022/11/12 01:07:38;;;;;;;141.63;67.75;;;;;;;;;;4966547;28;20031;-77
2022/11/12 01:10:06;;;;;;;146.63;68.10;;;;;;;;;;4990462;28;20097;-77
2022/11/12 01:12:32;;;;;;;151.10;69.20;;;;;;;;;;4972078;28;20457;-77
2022/11/12 01:14:58;;;;;;;150.77;68.95;;;;;;;;;;4972488;28;20042;-77
2022/11/12 01:17:24;;;;;;;138.25;67.45;;;;;;;;;;4968763;28;20037;-78
2022/11/12 01:19:50;;;;;;;127.72;60.40;;;;;;;;;;4971527;28;20030;-77
2022/11/12 01:22:16;;;;;;;138.85;67.50;;;;;;;;;;4982789;28;20031;-76
2022/11/12 01:24:42;;;;;;;141.82;68.35;;;;;;;;;;4986065;28;20038;-77
2022/11/12 01:27:08;;;;;;;144.50;70.60;;;;;;;;;;4984141;28;20030;-77
2022/11/12 01:29:34;;;;;;;139.18;68.72;;;;;;;;;;4968498;28;20041;-76
2022/11/12 01:32:02;;;;;;;133.07;67.80;;;;;;;;;;4985617;28;20057;-77
2022/11/12 01:34:28;;;;;;;155.05;73.80;;;;;;;;;;4984102;28;20030;-76
2022/11/12 01:36:54;;;;;;;140.82;70.32;;;;;;;;;;4986775;28;20069;-77
2022/11/12 01:39:20;;;;;;;151.00;73.18;;;;;;;;;;4972139;28;20042;-78
2022/11/12 01:41:46;;;;;;;154.55;73.53;;;;;;;;;;4986853;28;20036;-78
2022/11/12 01:44:12;;;;;;;153.27;76.75;;;;;;;;;;4993219;28;20081;-78
2022/11/12 01:46:58;;;;;;;157.52;76.22;;;;;;;;;;4993256;28;20117;-77
2022/11/12 01:49:42;;;;;;;155.70;76.45;;;;;;;;;;4993514;28;20034;-77
2022/11/12 01:52:21;;;;;;;161.20;79.47;;;;;;;;;;5001669;28;20047;-77
2022/11/12 01:54:49;;;;;;;174.60;80.63;;;;;;;;;;4997203;28;20026;-77
2022/11/12 01:57:17;;;;;;;157.98;82.75;;;;;;;;;;4994317;28;20057;-76
2022/11/12 01:59:44;;;;;;;143.68;77.93;;;;;;;;;;4995166;28;20043;-76
2022/11/12 02:02:10;;;;;;;156.70;81.40;;;;;;;;;;4994984;28;20030;-76
2022/11/12 02:04:38;;;;;;;141.77;74.43;;;;;;;;;;4999246;28;20034;-75
2022/11/12 02:07:04;;;;;;;158.05;81.90;;;;;;;;;;4998980;28;20122;-76
2022/11/12 02:09:31;;;;;;;164.00;82.10;;;;;;;;;;4998869;28;20089;-76
2022/11/12 02:11:58;;;;;;;160.30;84.22;;;;;;;;;;4990053;28;20054;-76
2022/11/12 02:14:24;;;;;;;163.50;83.15;;;;;;;;;;4994941;28;20036;-76
2022/11/12 02:19:57;;;;;;;170.98;85.35;;;;;;;;;;4989095;28;20030;-76
2022/11/12 02:22:23;;;;;;;167.40;86.53;;;;;;;;;;4974435;28;20041;-78
2022/11/12 02:24:49;;;;;;;158.70;81.78;;;;;;;;;;4987868;28;20034;-77
2022/11/12 02:27:15;;;;;;;169.13;84.57;;;;;;;;;;4983831;28;20453;-76
2022/11/12 02:29:45;;;;;;;162.10;83.38;;;;;;;;;;4985623;28;20058;-75
2022/11/12 02:32:12;;;;;;;149.75;81.93;;;;;;;;;;4983880;28;20050;-76
2022/11/12 02:34:40;;;;;;;164.15;84.60;;;;;;;;;;4979644;28;20222;-76
2022/11/12 02:37:06;;;;;;;151.43;81.00;;;;;;;;;;4984502;28;20042;-76
2022/11/12 02:39:33;;;;;;;165.00;85.60;;;;;;;;;;4983033;28;20257;-76
2022/11/12 02:41:59;;;;;;;154.52;83.38;;;;;;;;;;4985012;28;20030;-76
2022/11/12 02:44:25;;;;;;;157.60;81.75;;;;;;;;;;4986572;28;20482;-77
2022/11/12 02:46:51;;;;;;;150.75;81.70;;;;;;;;;;4979946;28;20591;-77
2022/11/12 02:49:17;;;;;;;152.25;81.72;;;;;;;;;;4987175;28;20054;-77
2022/11/12 02:51:43;;;;;;;154.10;78.85;;;;;;;;;;4983054;28;20042;-77
2022/11/12 02:54:29;;;;;;;148.88;79.78;;;;;;;;;;4978540;28;20038;-76
2022/11/12 02:56:55;;;;;;;143.55;79.30;;;;;;;;;;4989611;28;20081;-76
2022/11/12 02:59:21;;;;;;;156.43;81.07;;;;;;;;;;4987785;28;20034;-76
2022/11/12 03:01:47;;;;;;;144.40;78.70;;;;;;;;;;4988854;28;20090;-77
2022/11/12 03:04:13;;;;;;;141.85;79.63;;;;;;;;;;4995822;28;20034;-76
2022/11/12 03:06:39;;;;;;;136.80;77.18;;;;;;;;;;4973191;28;20050;-76
2022/11/12 03:09:05;;;;;;;128.00;74.97;;;;;;;;;;4997529;28;20124;-76
2022/11/12 03:11:31;;;;;;;131.20;72.90;;;;;;;;;;4998640;28;20129;-76
2022/11/12 03:13:57;;;;;;;126.20;74.63;;;;;;;;;;4992294;28;20490;-76
2022/11/12 03:16:23;;;;;;;142.40;76.57;;;;;;;;;;5001077;28;20090;-76
2022/11/12 03:18:49;;;;;;;136.73;75.13;;;;;;;;;;5005005;28;20026;-76
2022/11/12 03:21:15;;;;;;;132.02;75.20;;;;;;;;;;5003593;28;20074;-76
2022/11/12 03:23:41;;;;;;;144.60;74.38;;;;;;;;;;4981979;28;20117;-76
2022/11/12 03:29:11;;;;;;;156.68;77.05;;;;;;;;;;4994339;28;20049;-77
2022/11/12 03:31:43;;;;;;;153.65;79.63;;;;;;;;;;4987582;28;20109;-76
2022/11/12 03:34:10;;;;;;;140.75;75.55;;;;;;;;;;4988971;28;20137;-76
2022/11/12 03:36:36;;;;;;;142.70;74.68;;;;;;;;;;4986589;28;20050;-76
2022/11/12 03:39:03;;;;;;;136.48;76.22;;;;;;;;;;4964256;28;20066;-76
2022/11/12 03:41:31;;;;;;;137.82;76.40;;;;;;;;;;4991030;28;20474;-77
2022/11/12 03:43:59;;;;;;;133.35;74.18;;;;;;;;;;4981608;28;20034;-76
2022/11/12 03:46:25;;;;;;;133.18;75.82;;;;;;;;;;4986763;28;20065;-77
2022/11/12 03:48:52;;;;;;;136.15;75.93;;;;;;;;;;4991370;28;20034;-77
2022/11/12 03:51:20;;;;;;;130.50;74.03;;;;;;;;;;4973477;28;20081;-76
2022/11/12 03:53:46;;;;;;;128.73;72.82;;;;;;;;;;4980200;28;20046;-77
2022/11/12 03:56:12;;;;;;;138.68;73.72;;;;;;;;;;4974377;28;20410;-77
2022/11/12 03:58:38;;;;;;;137.05;77.13;;;;;;;;;;4986241;28;20031;-76
2022/11/12 04:01:04;;;;;;;125.85;74.18;;;;;;;;;;4989767;28;20162;-76
2022/11/12 04:03:29;;;;;;;131.75;74.35;;;;;;;;;;4990713;28;20025;-76
2022/11/12 04:08:40;;;;;;;123.45;72.72;;;;;;;;;;4990574;28;20564;-76
2022/11/12 04:11:08;;;;;;;121.97;73.78;;;;;;;;;;4982640;28;20071;-76
2022/11/12 04:13:37;;;;;;;125.28;73.10;;;;;;;;;;4994014;28;20030;-77
2022/11/12 04:22:01;;;;;;;126.88;73.30;;;;;;;;;;4997564;28;20104;-76
2022/11/12 04:27:20;;;;;;;128.52;71.22;;;;;;;;;;4993433;28;20061;-76
2022/11/12 04:32:57;;;;;;;131.30;70.30;;;;;;;;;;4985532;28;20041;-76
2022/11/12 04:35:23;;;;;;;;;;;;;;;;;;4982119;28;20054;-76
2022/11/12 04:37:49;;;;;;;126.93;65.57;;;;;;;;;;4990074;28;19953;-75
2022/11/12 04:45:52;;;;;;;154.15;77.03;;;;;;;;;;4987576;28;20045;-75
2022/11/12 04:48:18;;;;;;;167.10;80.18;;;;;;;;;;4986494;28;20038;-75
2022/11/12 04:50:47;;;;;;;150.77;75.53;;;;;;;;;;4985540;28;20564;-75
2022/11/12 04:53:14;;;;;;;181.20;87.05;;;;;;;;;;4985714;28;20493;-75
2022/11/12 04:55:40;;;;;;;175.30;83.70;;;;;;;;;;4971780;28;20398;-75
2022/11/12 04:58:06;;;;;;;191.13;89.75;;;;;;;;;;4961438;28;20043;-75
2022/11/12 05:00:32;;;;;;;177.40;85.30;;;;;;;;;;4987955;28;20026;-76
2022/11/12 05:02:58;;;;;;;248.25;94.88;;;;;;;;;;4972198;28;20042;-76
2022/11/12 05:05:24;;;;;;;202.68;89.20;;;;;;;;;;4991131;28;20034;-75
2022/11/12 05:07:50;;;;;;;281.30;98.13;;;;;;;;;;4994990;28;20042;-75
2022/11/12 05:10:16;;;;;;;472.13;108.05;;;;;;;;;;4994658;28;20045;-76
2022/11/12 05:12:43;;;;;;;309.65;96.55;;;;;;;;;;4983090;28;20089;-76
2022/11/12 05:15:10;;;;;;;316.77;104.50;;;;;;;;;;4998211;28;20035;-76
2022/11/12 05:17:36;;;;;;;423.50;107.78;;;;;;;;;;5001686;28;20516;-76
2022/11/12 05:20:02;;;;;;;278.33;92.10;;;;;;;;;;4997610;28;20046;-76
2022/11/12 05:22:28;;;;;;;258.73;97.63;;;;;;;;;;4998340;28;20025;-75
2022/11/12 05:24:54;;;;;;;379.42;105.50;;;;;;;;;;4978317;28;20030;-76
2022/11/12 05:27:20;;;;;;;263.65;98.15;;;;;;;;;;4950833;28;20045;-76
2022/11/12 05:29:47;;;;;;;299.30;99.32;;;;;;;;;;4976870;28;20481;-76
2022/11/12 05:32:15;;;;;;;296.63;95.15;;;;;;;;;;4985287;28;20039;-77
2022/11/12 05:34:41;;;;;;;298.00;97.18;;;;;;;;;;4990950;28;20042;-77
2022/11/12 05:40:11;;;;;;;316.50;99.95;;;;;;;;;;4984479;28;20559;-76
2022/11/12 05:42:37;;;;;;;300.73;101.18;;;;;;;;;;4989355;28;20045;-76
2022/11/12 05:45:03;;;;;;;317.15;102.45;;;;;;;;;;4978349;28;20054;-76
2022/11/12 05:47:29;;;;;;;212.18;90.22;;;;;;;;;;4985799;28;20089;-76
2022/11/12 05:49:55;;;;;;;198.10;87.13;;;;;;;;;;4983418;28;20070;-76
2022/11/12 05:52:21;;;;;;;196.38;90.18;;;;;;;;;;4964900;28;20049;-76
2022/11/12 05:54:48;;;;;;;333.73;105.15;;;;;;;;;;4972779;28;20057;-76
2022/11/12 05:57:14;;;;;;;199.82;91.22;;;;;;;;;;4982600;28;20053;-77
2022/11/12 05:59:40;;;;;;;263.90;99.07;;;;;;;;;;4969758;28;20065;-76
2022/11/12 06:02:06;;;;;;;205.50;92.20;;;;;;;;;;4979868;28;20038;-77
2022/11/12 06:07:36;;;;;;;168.70;87.97;;;;;;;;;;4987613;28;20160;-76
2022/11/12 06:10:02;;;;;;;193.10;90.85;;;;;;;;;;4988921;28;20064;-76
2022/11/12 06:12:30;;;;;;;200.50;91.40;;;;;;;;;;4977607;28;20049;-76
2022/11/12 06:14:56;;;;;;;195.45;94.28;;;;;;;;;;4997372;28;20028;-76
2022/11/12 06:17:22;;;;;;;185.48;92.60;;;;;;;;;;4976207;28;20046;-76
2022/11/12 06:20:09;;;;;;;168.52;87.60;;;;;;;;;;4977033;28;20038;-77
2022/11/12 06:22:35;;;;;;;225.27;100.07;;;;;;;;;;4994282;28;20030;-77
2022/11/12 06:25:01;;;;;;;147.60;86.40;;;;;;;;;;4995036;28;20033;-76
2022/11/12 06:27:27;;;;;;;183.95;94.95;;;;;;;;;;4983944;28;20038;-78
2022/11/12 06:29:53;;;;;;;161.82;89.00;;;;;;;;;;5000099;28;21909;-77
2022/11/12 06:32:19;;;;;;;209.38;93.93;;;;;;;;;;5003870;28;20049;-78
2022/11/12 06:34:45;;;;;;;238.82;96.88;;;;;;;;;;5004251;28;20026;-76
2022/11/12 06:37:11;;;;;;;155.15;86.47;;;;;;;;;;5004479;28;20062;-77
2022/11/12 06:39:37;;;;;;;175.38;87.78;;;;;;;;;;5006525;28;20505;-76
2022/11/12 06:42:03;;;;;;;193.75;91.38;;;;;;;;;;5007491;28;20050;-77
2022/11/12 06:44:29;;;;;;;181.95;86.47;;;;;;;;;;4986368;28;20098;-78
2022/11/12 06:46:55;;;;;;;187.30;92.00;;;;;;;;;;4996156;28;20405;-78
2022/11/12 06:49:21;;;;;;;223.80;92.07;;;;;;;;;;5003380;28;20097;-79
2022/11/12 06:51:49;;;;;;;243.57;103.00;;;;;;;;;;4994335;28;20057;-77
2022/11/12 06:54:15;;;;;;;208.93;96.95;;;;;;;;;;4997027;28;20105;-77
2022/11/12 06:56:41;;;;;;;154.80;85.00;;;;;;;;;;4997735;28;20053;-78
2022/11/12 06:59:07;;;;;;;167.10;85.95;;;;;;;;;;4997308;28;20042;-78
2022/11/12 07:01:33;;;;;;;173.70;89.18;;;;;;;;;;4980718;28;20046;-77
2022/11/12 07:04:00;;;;;;;159.35;87.93;;;;;;;;;;4988785;28;20125;-78
2022/11/12 07:06:26;;;;;;;178.32;90.70;;;;;;;;;;4990666;28;20193;-76
2022/11/12 07:08:52;;;;;;;166.05;88.55;;;;;;;;;;4998170;28;20014;-77
2022/11/12 07:11:19;;;;;;;193.95;95.45;;;;;;;;;;4993939;28;20057;-77
2022/11/12 07:13:45;;;;;;;189.77;94.25;;;;;;;;;;4993402;28;20560;-79
2022/11/12 07:16:12;;;;;;;176.15;88.07;;;;;;;;;;4991549;28;20038;-77
2022/11/12 07:18:39;;;;;;;170.73;88.70;;;;;;;;;;4992066;28;20023;-77
2022/11/12 07:21:10;;;;;;;186.35;94.85;;;;;;;;;;4989629;28;20034;-77
2022/11/12 07:23:37;;;;;;;181.40;93.22;;;;;;;;;;4990211;28;20113;-77
2022/11/12 07:26:07;;;;;;;198.95;94.50;;;;;;;;;;4973266;28;20053;-77
2022/11/12 07:28:33;;;;;;;189.52;96.45;;;;;;;;;;4990972;28;20027;-78
2022/11/12 07:31:06;;;;;;;201.48;99.93;;;;;;;;;;4972001;28;20209;-77
2022/11/12 07:33:33;;;;;;;340.45;165.30;;;;;;;;;;4987144;28;20096;-77
2022/11/12 07:36:00;;;;;;;471.73;226.40;;;;;;;;;;4986367;28;20045;-77
2022/11/12 07:38:26;;;;;;;692.63;372.83;;;;;;;;;;4989672;28;20073;-77
2022/11/12 07:40:57;;;;;;;283.65;136.77;;;;;;;;;;4972272;28;20582;-77
2022/11/12 07:43:23;;;;;;;221.95;112.05;;;;;;;;;;4986818;28;20035;-78
2022/11/12 07:45:49;;;;;;;202.20;103.68;;;;;;;;;;4981934;28;20052;-77
2022/11/12 07:48:15;;;;;;;278.13;149.07;;;;;;;;;;4973689;28;20039;-77
2022/11/12 07:50:41;;;;;;;209.85;109.95;;;;;;;;;;4990204;28;20092;-78
2022/11/12 07:53:07;;;;;;;224.88;115.10;;;;;;;;;;4977536;28;20118;-77
2022/11/12 07:55:33;;;;;;;212.88;111.57;;;;;;;;;;4989902;28;20040;-77
2022/11/12 07:58:18;;;;;;;271.58;111.65;;;;;;;;;;4974490;28;20416;-77
2022/11/12 08:00:44;;;;;;;243.35;131.82;;;;;;;;;;4986680;28;20026;-77
2022/11/12 08:03:29;;;;;;;189.02;102.93;;;;;;;;;;4996664;28;20412;-77
2022/11/12 08:05:55;;;;;;;175.70;96.18;;;;;;;;;;4988252;28;20129;-77
2022/11/12 08:08:21;;;;;;;220.77;101.97;;;;;;;;;;4962441;28;20066;-77
2022/11/12 08:10:47;;;;;;;169.70;97.47;;;;;;;;;;4991197;28;20058;-77
2022/11/12 08:13:13;;;;;;;168.80;90.93;;;;;;;;;;4997923;28;20023;-78
2022/11/12 08:15:39;;;;;;;158.68;83.28;;;;;;;;;;5000065;28;20035;-77
2022/11/12 08:18:06;;;;;;;161.45;89.15;;;;;;;;;;4994375;28;20034;-78
2022/11/12 08:20:32;;;;;;;152.32;86.32;;;;;;;;;;4994018;28;20081;-78
2022/11/12 08:23:01;;;;;;;153.00;85.00;;;;;;;;;;4991984;28;20122;-76
2022/11/12 08:25:27;;;;;;;137.23;81.90;;;;;;;;;;4994873;28;20018;-77
2022/11/12 08:27:55;;;;;;;158.43;86.13;;;;;;;;;;4994096;28;20163;-77
2022/11/12 08:30:21;;;;;;;123.38;76.60;;;;;;;;;;4990266;28;20041;-77
2022/11/12 08:32:47;;;;;;;135.10;76.93;;;;;;;;;;4994990;28;20037;-77
2022/11/12 08:35:13;;;;;;;131.05;78.00;;;;;;;;;;4993003;28;20031;-77
2022/11/12 08:37:39;;;;;;;136.60;76.57;;;;;;;;;;4971392;28;20065;-77
2022/11/12 08:40:06;;;;;;;127.40;79.68;;;;;;;;;;4987720;28;20026;-77
2022/11/12 08:42:32;;;;;;;125.68;77.82;;;;;;;;;;4993985;28;20042;-76
2022/11/12 08:44:58;;;;;;;138.63;81.65;;;;;;;;;;4993402;28;20088;-77
2022/11/12 08:47:24;;;;;;;132.25;75.20;;;;;;;;;;4994717;28;20038;-76
2022/11/12 08:49:49;;;;;;;120.30;73.47;;;;;;;;;;4992753;28;20541;-77
2022/11/12 08:52:15;;;;;;;107.70;69.25;;;;;;;;;;4994152;28;20437;-77
2022/11/12 08:54:41;;;;;;;105.60;65.47;;;;;;;;;;4994280;28;20117;-76
2022/11/12 08:57:07;;;;;;;121.93;69.03;;;;;;;;;;4995738;28;20034;-77
2022/11/12 08:59:33;;;;;;;110.25;68.78;;;;;;;;;;4992211;28;20397;-76
2022/11/12 09:01:59;;;;;;;120.75;73.03;;;;;;;;;;4993774;28;20046;-76
2022/11/12 09:04:25;;;;;;;108.38;66.38;;;;;;;;;;4980401;28;20409;-76
2022/11/12 09:06:51;;;;;;;106.07;65.00;;;;;;;;;;4984611;28;20065;-76
2022/11/12 09:09:17;;;;;;;98.93;60.05;;;;;;;;;;4995249;28;20072;-76
2022/11/12 09:11:43;;;;;;;87.97;59.13;;;;;;;;;;4996619;28;20041;-77
2022/11/12 09:14:09;;;;;;;80.45;53.67;;;;;;;;;;4994908;28;20026;-76
2022/11/12 09:16:35;;;;;;;83.68;55.03;;;;;;;;;;5001457;28;20026;-76
2022/11/12 09:19:03;;;;;;;79.65;52.08;;;;;;;;;;5010029;28;20043;-75
2022/11/12 09:21:48;;;;;;;70.65;49.25;;;;;;;;;;4987580;28;20069;-77
2022/11/12 09:24:14;;;;;;;72.18;50.08;;;;;;;;;;4996338;28;20097;-76
2022/11/12 09:26:42;;;;;;;69.50;46.95;;;;;;;;;;4997301;28;20062;-77
2022/11/12 09:29:08;;;;;;;75.63;48.10;;;;;;;;;;4981304;28;20058;-77
2022/11/12 09:31:34;;;;;;;61.00;43.65;;;;;;;;;;4994987;28;20034;-77
2022/11/12 09:34:00;;;;;;;67.68;45.97;;;;;;;;;;4994403;28;20406;-77
2022/11/12 09:36:26;;;;;;;53.85;39.33;;;;;;;;;;4993966;28;20514;-77
2022/11/12 09:38:52;;;;;;;55.75;40.10;;;;;;;;;;4995466;28;20006;-77
2022/11/12 09:41:38;;;;;;;52.33;39.63;;;;;;;;;;4991872;28;20046;-77
2022/11/12 09:44:06;;;;;;;47.38;35.42;;;;;;;;;;4995597;28;20038;-77
2022/11/12 09:49:38;;;;;;;54.20;37.35;;;;;;;;;;5001925;28;20029;-77
2022/11/12 09:52:30;;;;;;;53.05;35.75;;;;;;;;;;5000257;28;20030;-77
2022/11/12 09:55:02;;;;;;;50.58;36.65;;;;;;;;;;4994604;28;20054;-76
2022/11/12 09:57:28;;;;;;;41.78;31.90;;;;;;;;;;5003659;28;20036;-76
2022/11/12 09:59:54;;;;;;;43.63;31.25;;;;;;;;;;4999933;28;20061;-77
2022/11/12 10:02:23;;;;;;;42.38;31.08;;;;;;;;;;5001787;28;20509;-77
2022/11/12 10:05:09;;;;;;;45.25;30.08;;;;;;;;;;5000049;28;20027;-77
2022/11/12 10:07:44;;;;;;;39.30;28.85;;;;;;;;;;4998041;28;20031;-77
2022/11/12 10:10:29;;;;;;;35.47;26.65;;;;;;;;;;4998722;28;20030;-78
2022/11/12 10:13:13;;;;;;;34.72;25.15;;;;;;;;;;5004812;28;20394;-77
2022/11/12 10:22:12;;;;;;;26.50;21.08;;;;;;;;;;4992547;28;20028;-77
2022/11/12 10:24:39;;;;;;;33.08;21.00;;;;;;;;;;4986561;28;20030;-77
2022/11/12 10:27:14;;;;;;;23.25;19.25;;;;;;;;;;4999116;28;20081;-77
2022/11/12 10:29:49;;;;;;;29.33;22.05;;;;;;;;;;5001378;28;20031;-77
2022/11/12 10:35:21;;;;;;;42.22;25.40;;;;;;;;;;4995942;28;20026;-79
2022/11/12 10:37:52;;;;;;;25.40;17.95;;;;;;;;;;4995719;28;20022;-77
2022/11/12 10:40:24;;;;;;;24.70;16.67;;;;;;;;;;4993964;28;20038;-77
2022/11/12 10:42:59;;;;;;;27.65;20.10;;;;;;;;;;4995295;28;20015;-77
2022/11/12 10:45:25;;;;;;;29.15;19.23;;;;;;;;;;4998247;28;20030;-77
2022/11/12 10:47:51;;;;;;;24.65;17.05;;;;;;;;;;4977356;28;20042;-78
2022/11/12 10:50:27;;;;;;;23.73;17.42;;;;;;;;;;4993438;28;20046;-77
2022/11/12 10:52:58;;;;;;;24.15;15.68;;;;;;;;;;4974925;28;20074;-77
2022/11/12 10:55:26;;;;;;;22.58;15.63;;;;;;;;;;4982822;28;20118;-78
2022/11/12 10:58:24;;;;;;;22.45;16.45;;;;;;;;;;4992914;28;20053;-78
2022/11/12 11:00:53;;;;;;;24.10;16.00;;;;;;;;;;4982472;28;20041;-77
2022/11/12 11:03:39;;;;;;;17.90;13.45;;;;;;;;;;4991471;28;20050;-78
2022/11/12 11:06:07;;;;;;;23.77;14.85;;;;;;;;;;4991295;28;20034;-77
2022/11/12 11:08:34;;;;;;;20.60;13.40;;;;;;;;;;4992540;28;20511;-77
2022/11/12 11:11:18;;;;;;;19.77;15.18;;;;;;;;;;4993081;28;20026;-78
2022/11/12 11:13:45;;;;;;;22.05;14.02;;;;;;;;;;4989836;28;20038;-77
2022/11/12 11:16:14;;;;;;;16.30;13.20;;;;;;;;;;4992032;28;20025;-77
2022/11/12 11:18:42;;;;;;;20.02;14.15;;;;;;;;;;4988533;28;20023;-77
2022/11/12 11:21:26;;;;;;;20.65;14.35;;;;;;;;;;4991376;28;20034;-77
2022/11/12 11:23:57;;;;;;;24.42;15.32;;;;;;;;;;4982405;28;20251;-78
2022/11/12 11:26:31;;;;;;;20.83;14.85;;;;;;;;;;4986597;28;20056;-77
2022/11/12 11:29:03;;;;;;;19.65;14.15;;;;;;;;;;4988808;28;20038;-78
2022/11/12 11:31:54;;;;;;;19.30;13.55;;;;;;;;;;4983561;28;20051;-76
2022/11/12 11:34:38;;;;;;;16.50;12.50;;;;;;;;;;4987812;28;20187;-77
2022/11/12 11:37:10;;;;;;;16.10;11.75;;;;;;;;;;4990415;28;20058;-76
2022/11/12 11:39:39;;;;;;;16.10;11.35;;;;;;;;;;4992477;28;20093;-77
2022/11/12 11:42:13;;;;;;;19.92;11.63;;;;;;;;;;4971262;28;20038;-77
2022/11/12 11:44:51;;;;;;;15.63;11.52;;;;;;;;;;4990257;28;20173;-76
2022/11/12 11:50:24;;;;;;;19.48;11.38;;;;;;;;;;4985776;28;20149;-78
2022/11/12 11:53:04;;;;;;;15.65;11.32;;;;;;;;;;4976362;28;20073;-79
2022/11/12 11:55:33;;;;;;;15.17;10.80;;;;;;;;;;4995253;28;20027;-78
2022/11/12 11:57:59;;;;;;;28.50;11.02;;;;;;;;;;4998136;28;20026;-77
2022/11/12 12:00:29;;;;;;;15.65;9.68;;;;;;;;;;5008432;28;20037;-78
2022/11/12 12:02:55;;;;;;;15.25;8.82;;;;;;;;;;4993971;28;20249;-79
2022/11/12 12:05:27;;;;;;;13.90;9.30;;;;;;;;;;4995381;28;20030;-79
2022/11/12 12:08:10;;;;;;;18.15;12.25;;;;;;;;;;4996232;28;20113;-78
2022/11/12 12:10:36;;;;;;;23.17;16.50;;;;;;;;;;4996554;28;20065;-79
2022/11/12 12:13:12;;;;;;;48.78;34.53;;;;;;;;;;4995358;28;20175;-78
2022/11/12 12:15:54;;;;;;;35.08;21.67;;;;;;;;;;4995304;28;20034;-79
2022/11/12 12:18:29;;;;;;;31.08;21.33;;;;;;;;;;4996557;28;20101;-79
2022/11/12 12:21:04;;;;;;;27.33;17.35;;;;;;;;;;4996579;28;20023;-79
2022/11/12 12:23:34;;;;;;;15.32;10.48;;;;;;;;;;4995947;28;20509;-79
2022/11/12 12:26:02;;;;;;;14.43;9.52;;;;;;;;;;4995326;28;20057;-79
2022/11/12 12:28:28;;;;;;;13.00;9.00;;;;;;;;;;4978474;28;20034;-78
2022/11/12 12:30:56;;;;;;;12.40;9.32;;;;;;;;;;4995537;28;20040;-78
2022/11/12 12:33:29;;;;;;;13.00;8.85;;;;;;;;;;4976355;28;20391;-79
2022/11/12 12:36:00;;;;;;;14.52;9.60;;;;;;;;;;4975162;28;20033;-78
2022/11/12 12:38:31;;;;;;;12.95;9.10;;;;;;;;;;4986037;28;20496;-79
2022/11/12 12:41:06;;;;;;;13.73;8.90;;;;;;;;;;4995431;28;20069;-79
2022/11/12 12:43:39;;;;;;;13.82;9.55;;;;;;;;;;4994702;28;20513;-78
2022/11/12 12:46:06;;;;;;;12.18;9.80;;;;;;;;;;4996133;28;20035;-79
2022/11/12 12:48:37;;;;;;;13.95;11.15;;;;;;;;;;4995786;28;20030;-78
2022/11/12 12:51:03;;;;;;;;;;;;;;;;;;4994614;28;20030;-78
2022/11/12 12:53:29;;;;;;;15.68;10.43;;;;;;;;;;4995684;28;20430;-78
2022/11/12 12:56:16;;;;;;;21.13;11.93;;;;;;;;;;4997317;28;20022;-77
2022/11/12 12:58:44;;;;;;;15.82;10.82;;;;;;;;;;4997332;28;20129;-78
2022/11/12 13:01:13;;;;;;;14.73;10.82;;;;;;;;;;4995728;28;20023;-78
2022/11/12 13:03:42;;;;;;;16.67;11.00;;;;;;;;;;5004375;28;20196;-79
2022/11/12 13:06:19;;;;;;;15.90;10.30;;;;;;;;;;5001150;28;20030;-78
2022/11/12 13:08:45;;;;;;;22.13;11.73;;;;;;;;;;4996113;28;20030;-78
2022/11/12 13:12:20;;;;;;;16.13;11.27;;;;;;;;;;4995959;28;20033;-78
2022/11/12 13:14:39;;;;;;;14.77;11.52;;;;;;;;;;4977098;28;20129;-78
2022/11/12 13:17:10;;;;;;;16.13;10.75;;;;;;;;;;4987912;28;20434;-78
2022/11/12 13:19:56;;;;;;;12.65;9.82;;;;;;;;;;4998538;28;20154;-78
2022/11/12 13:22:22;;;;;;;17.13;10.68;;;;;;;;;;4998602;28;20034;-78
2022/11/12 13:25:17;;;;;;;15.95;10.63;;;;;;;;;;4998427;28;20041;-80
2022/11/12 13:27:43;;;;;;;15.23;9.95;;;;;;;;;;4984226;28;20053;-78
2022/11/12 13:30:09;;;;;;;15.60;10.52;;;;;;;;;;5000986;28;20106;-79
2022/11/12 13:32:35;;;;;;;12.48;9.32;;;;;;;;;;4999538;28;20097;-78
2022/11/12 13:35:16;;;;;;;11.95;8.80;;;;;;;;;;5002329;28;20089;-77
2022/11/12 13:37:43;;;;;;;;;;;;;;;;;;5012371;28;20026;-78
2022/11/12 13:40:16;;;;;;;13.95;9.55;;;;;;;;;;4988789;28;19909;-78
2022/11/12 13:42:49;;;;;;;14.57;9.80;;;;;;;;;;4987927;28;20540;-78
2022/11/12 13:45:17;;;;;;;11.30;9.30;;;;;;;;;;5004607;28;20172;-79
2022/11/12 13:47:44;;;;;;;13.95;9.43;;;;;;;;;;5005361;28;20042;-79
2022/11/12 13:50:22;;;;;;;34.22;10.52;;;;;;;;;;4988885;28;20030;-79
2022/11/12 13:52:48;;;;;;;288.42;33.45;;;;;;;;;;5005513;28;20041;-78
2022/11/12 13:55:16;;;;;;;43.95;10.63;;;;;;;;;;4987331;28;20031;-80
2022/11/12 13:57:48;;;;;;;108.57;15.40;;;;;;;;;;5004940;28;20053;-78
2022/11/12 14:00:29;;;;;;;46.63;9.45;;;;;;;;;;5003962;28;20524;-78
2022/11/12 14:03:00;;;;;;;12.93;7.15;;;;;;;;;;5005323;28;20204;-78
2022/11/12 14:05:28;;;;;;;9.27;6.05;;;;;;;;;;5006418;28;20050;-78
2022/11/12 14:08:04;;;;;;;10.18;5.28;;;;;;;;;;5006050;28;20030;-78
2022/11/12 14:10:30;;;;;;;17.35;6.18;;;;;;;;;;5002222;28;20087;-79
2022/11/12 14:13:13;;;;;;;8.30;5.20;;;;;;;;;;5005231;28;20034;-78
2022/11/12 14:15:57;;;;;;;10.60;5.85;;;;;;;;;;5001160;28;20058;-78
2022/11/12 14:18:30;;;;;;;9.27;4.97;;;;;;;;;;4999697;28;20038;-79
2022/11/12 14:20:56;;;;;;;13.32;6.38;;;;;;;;;;4999487;28;20102;-79
2022/11/12 14:23:22;;;;;;;7.45;4.82;;;;;;;;;;4999536;28;20620;-79
2022/11/12 14:25:50;;;;;;;10.35;3.88;;;;;;;;;;4981962;28;20030;-76
2022/11/12 14:28:26;;;;;;;6.95;3.90;;;;;;;;;;4996064;28;20069;-80
2022/11/12 14:30:52;;;;;;;11.18;6.28;;;;;;;;;;4978053;28;20042;-79
2022/11/12 14:33:20;;;;;;;73.15;13.52;;;;;;;;;;4977014;28;20248;-78
2022/11/12 14:35:46;;;;;;;116.80;22.83;;;;;;;;;;4993785;28;20026;-78
2022/11/12 14:38:31;;;;;;;30.75;7.47;;;;;;;;;;4968690;28;20121;-78
2022/11/12 14:41:07;;;;;;;14.85;4.53;;;;;;;;;;4997768;28;20034;-78
2022/11/12 14:43:37;;;;;;;9.10;3.88;;;;;;;;;;4993128;28;20117;-78
2022/11/12 14:46:05;;;;;;;9.65;3.58;;;;;;;;;;4975432;28;20061;-78
2022/11/12 14:48:51;;;;;;;11.57;3.55;;;;;;;;;;4992881;28;20429;-78
2022/11/12 14:51:17;;;;;;;12.20;3.97;;;;;;;;;;4981149;28;20382;-79
2022/11/12 14:53:47;;;;;;;11.32;3.70;;;;;;;;;;4975419;28;20030;-80
2022/11/12 14:56:22;;;;;;;9.02;3.30;;;;;;;;;;4974334;28;20042;-80
2022/11/12 14:58:51;;;;;;;7.18;3.80;;;;;;;;;;4993081;28;20485;-79
2022/11/12 15:01:19;;;;;;;14.55;3.72;;;;;;;;;;4991531;28;20117;-79
2022/11/12 15:03:45;;;;;;;10.23;3.60;;;;;;;;;;4992818;28;20038;-78
2022/11/12 15:06:11;;;;;;;8.40;4.72;;;;;;;;;;4991938;28;20112;-78
2022/11/12 15:08:39;;;;;;;9.88;5.10;;;;;;;;;;4992354;28;20478;-78
2022/11/12 15:11:20;;;;;;;14.27;5.60;;;;;;;;;;4992614;28;20026;-80